createdAt,value
2017-10-29T00:01:04.669Z,10.47
2017-10-29T00:03:33.116Z,12.10
2017-10-29T00:06:00.657Z,9.47
2017-10-29T00:08:28.180Z,7.33
2017-10-29T00:10:55.713Z,6.40
2017-10-29T00:13:23.251Z,5.60
2017-10-29T00:15:50.780Z,5.50
2017-10-29T00:18:18.304Z,4.90
2017-10-29T00:20:45.890Z,4.67
2017-10-29T00:23:13.412Z,4.17
2017-10-29T00:25:40.945Z,4.10
2017-10-29T00:28:08.474Z,3.13
2017-10-29T00:30:35.996Z,3.10
2017-10-29T00:33:03.521Z,2.97
2017-10-29T00:35:31.873Z,2.57
2017-10-29T00:37:59.398Z,3.27
2017-10-29T00:40:26.934Z,2.07
2017-10-29T00:42:54.566Z,1.83
2017-10-29T00:45:22.097Z,1.97
2017-10-29T00:47:49.672Z,1.90
2017-10-29T00:50:17.221Z,1.97
2017-10-29T00:52:45.323Z,1.90
2017-10-29T00:55:12.849Z,1.90
2017-10-29T00:57:40.381Z,2.00
2017-10-29T01:00:07.914Z,1.80
2017-10-29T01:02:35.436Z,1.30
2017-10-29T01:05:03.547Z,1.80
2017-10-29T01:07:32.135Z,1.53
2017-10-29T01:09:59.660Z,2.00
2017-10-29T01:12:27.194Z,1.70
2017-10-29T01:14:54.721Z,1.70
2017-10-29T01:17:22.243Z,1.70
2017-10-29T01:19:49.828Z,1.63
2017-10-29T01:22:17.357Z,1.70
2017-10-29T01:24:44.929Z,1.63
2017-10-29T01:27:12.453Z,2.13
2017-10-29T01:29:39.985Z,1.80
2017-10-29T01:32:07.514Z,1.53
2017-10-29T01:34:35.041Z,1.90
2017-10-29T01:37:02.609Z,1.50
2017-10-29T01:39:30.208Z,1.83
2017-10-29T01:41:57.777Z,1.70
2017-10-29T01:44:25.394Z,1.80
2017-10-29T01:46:52.919Z,1.93
2017-10-29T01:49:20.548Z,1.83
2017-10-29T01:51:48.078Z,1.70
2017-10-29T01:54:15.605Z,1.70
2017-10-29T01:56:43.129Z,1.60
2017-10-29T01:59:10.675Z,1.67
2017-10-29T02:01:38.203Z,1.90
2017-10-29T02:04:05.739Z,1.70
2017-10-29T02:06:33.954Z,1.87
2017-10-29T02:09:02.696Z,1.90
2017-10-29T02:11:30.213Z,1.63
2017-10-29T02:13:57.746Z,1.70
2017-10-29T02:16:26.279Z,1.97
2017-10-29T02:18:53.843Z,2.40
2017-10-29T02:21:22.275Z,2.50
2017-10-29T02:23:49.812Z,1.90
2017-10-29T02:26:18.242Z,2.43
2017-10-29T02:28:45.896Z,2.20
2017-10-29T02:31:13.426Z,1.93
2017-10-29T02:33:40.952Z,2.43
2017-10-29T02:36:09.257Z,2.23
2017-10-29T02:38:36.796Z,2.87
2017-10-29T02:41:05.259Z,3.37
2017-10-29T02:43:34.008Z,3.77
2017-10-29T02:46:02.800Z,2.73
2017-10-29T02:48:30.333Z,2.83
2017-10-29T02:50:58.756Z,2.47
2017-10-29T02:53:26.281Z,2.30
2017-10-29T02:55:53.814Z,2.00
2017-10-29T02:58:21.339Z,1.43
2017-10-29T03:00:48.856Z,1.20
2017-10-29T03:03:17.272Z,1.10
2017-10-29T03:05:44.827Z,0.80
2017-10-29T03:08:12.347Z,1.00
2017-10-29T03:10:40.705Z,1.30
2017-10-29T03:13:09.108Z,0.70
2017-10-29T03:15:36.629Z,0.83
2017-10-29T03:18:05.880Z,0.80
2017-10-29T03:20:34.336Z,0.93
2017-10-29T03:23:02.320Z,0.93
2017-10-29T03:25:29.851Z,1.00
2017-10-29T03:27:57.381Z,1.17
2017-10-29T03:30:24.914Z,1.20
2017-10-29T03:32:53.228Z,0.97
2017-10-29T03:35:20.753Z,1.10
2017-10-29T03:37:48.284Z,0.97
2017-10-29T03:40:16.735Z,1.20
2017-10-29T03:42:44.255Z,1.23
2017-10-29T03:45:11.780Z,1.30
2017-10-29T03:47:40.349Z,1.40
2017-10-29T03:50:07.878Z,1.10
2017-10-29T03:52:35.400Z,1.80
2017-10-29T03:55:03.927Z,1.27
2017-10-29T03:57:31.449Z,1.60
2017-10-29T03:59:58.981Z,1.33
2017-10-29T04:02:26.514Z,1.40
2017-10-29T04:04:54.040Z,1.40
2017-10-29T04:07:21.658Z,1.10
2017-10-29T04:09:49.189Z,1.53
2017-10-29T04:12:17.669Z,1.10
2017-10-29T04:14:45.195Z,1.10
2017-10-29T04:17:12.715Z,0.83
2017-10-29T04:19:40.244Z,1.30
2017-10-29T04:22:07.766Z,1.73
2017-10-29T04:24:35.318Z,1.30
2017-10-29T04:27:02.837Z,1.00
2017-10-29T04:29:30.365Z,1.23
2017-10-29T04:31:58.697Z,1.90
2017-10-29T04:34:26.776Z,1.50
2017-10-29T04:36:54.327Z,1.33
2017-10-29T04:39:21.847Z,2.53
2017-10-29T04:41:49.367Z,2.13
2017-10-29T04:44:16.889Z,1.97
2017-10-29T04:46:44.412Z,1.90
2017-10-29T04:49:11.935Z,3.80
2017-10-29T04:51:39.457Z,4.03
2017-10-29T04:54:06.989Z,2.80
2017-10-29T04:56:34.566Z,2.93
2017-10-29T04:59:02.877Z,1.87
2017-10-29T05:01:30.440Z,2.13
2017-10-29T05:03:58.876Z,2.07
2017-10-29T05:06:26.436Z,1.50
2017-10-29T05:08:55.200Z,1.93
2017-10-29T05:11:25.258Z,2.03
2017-10-29T05:13:54.175Z,2.20
2017-10-29T05:16:22.507Z,2.23
2017-10-29T05:18:50.851Z,2.00
2017-10-29T05:21:19.302Z,2.00
2017-10-29T05:23:47.927Z,2.57
2017-10-29T05:26:16.356Z,2.37
2017-10-29T05:28:43.897Z,2.17
2017-10-29T05:31:11.420Z,1.90
2017-10-29T05:33:39.719Z,2.40
2017-10-29T05:36:07.248Z,2.60
2017-10-29T05:38:35.724Z,3.60
2017-10-29T05:41:03.249Z,2.90
2017-10-29T05:43:30.772Z,2.57
2017-10-29T05:45:59.194Z,2.80
2017-10-29T05:48:26.748Z,2.67
2017-10-29T05:50:55.188Z,3.07
2017-10-29T05:53:23.608Z,2.60
2017-10-29T05:55:51.990Z,2.67
2017-10-29T05:58:20.341Z,3.53
2017-10-29T06:00:48.708Z,4.20
2017-10-29T06:03:16.346Z,3.20
2017-10-29T06:05:43.876Z,3.10
2017-10-29T06:08:12.157Z,4.03
2017-10-29T06:10:40.492Z,5.67
2017-10-29T06:13:08.935Z,3.60
2017-10-29T06:15:37.377Z,3.90
2017-10-29T06:18:05.826Z,4.20
2017-10-29T06:20:33.350Z,5.73
2017-10-29T06:23:00.870Z,3.73
2017-10-29T06:25:29.305Z,4.93
2017-10-29T06:27:57.349Z,4.47
2017-10-29T06:30:25.865Z,4.80
2017-10-29T06:32:54.182Z,4.97
2017-10-29T06:35:22.498Z,4.20
2017-10-29T06:37:50.959Z,5.57
2017-10-29T06:40:20.340Z,4.53
2017-10-29T06:42:47.884Z,5.23
